Time;durP1;ratioP1;P1;durP2;ratioP2;P2;SDS_P1;SDS_P2;PMS_P1;PMS_P2;Temp;Humidity;BMP_temperature;BMP_pressure;BME280_temperature;BME280_humidity;BME280_pressure;Samples;Min_cycle;Max_cycle;Signal;HPM_P1;HPM_P2
2022/09/20 00:02:34;;;;;;;3.50;1.10;;;13.30;99.90;;;;;;8424763;27;20043;-74
2022/09/20 00:06:36;;;;;;;5.18;1.20;;;13.20;99.90;;;;;;8420631;28;20059;-74
2022/09/20 00:10:38;;;;;;;6.13;1.25;;;13.10;99.90;;;;;;8406896;28;20078;-74
2022/09/20 00:14:40;;;;;;;3.22;1.10;;;13.10;99.90;;;;;;8413687;28;20068;-74
2022/09/20 00:18:41;;;;;;;3.10;1.00;;;13.10;99.90;;;;;;8419734;28;20059;-74
2022/09/20 00:22:43;;;;;;;4.97;1.50;;;13.10;99.90;;;;;;8403567;28;20555;-74
2022/09/20 00:26:45;;;;;;;5.20;1.75;;;13.10;99.90;;;;;;8436927;27;20138;-74
2022/09/20 00:30:47;;;;;;;4.75;1.55;;;13.00;99.90;;;;;;8412454;28;20052;-74
2022/09/20 00:35:09;;;;;;;6.90;1.50;;;13.00;99.90;;;;;;8401867;28;20639;-75
2022/09/20 00:39:13;;;;;;;5.15;1.38;;;13.00;99.90;;;;;;8406229;28;20044;-74
2022/09/20 00:43:16;;;;;;;4.50;1.80;;;12.90;99.90;;;;;;8417682;28;20131;-74
2022/09/20 00:47:28;;;;;;;3.15;1.48;;;13.00;99.90;;;;;;8408148;28;20050;-74
2022/09/20 00:51:35;;;;;;;5.43;1.50;;;12.90;99.90;;;;;;8409440;28;20054;-73
2022/09/20 00:55:42;;;;;;;7.37;1.50;;;12.90;99.90;;;;;;8405152;28;20531;-74
2022/09/20 00:59:47;;;;;;;4.80;1.50;;;12.80;99.90;;;;;;8418924;28;20383;-73
2022/09/20 01:03:48;;;;;;;4.00;1.38;;;12.80;99.90;;;;;;8433663;27;20123;-74
2022/09/20 01:07:51;;;;;;;3.67;1.30;;;12.70;99.90;;;;;;8399481;28;20055;-74
2022/09/20 01:11:55;;;;;;;5.18;1.42;;;12.70;99.90;;;;;;8405731;28;20131;-73
2022/09/20 01:15:59;;;;;;;4.47;1.30;;;12.70;99.90;;;;;;8399971;28;20123;-74
2022/09/20 01:20:07;;;;;;;3.88;1.13;;;12.70;99.90;;;;;;8404947;28;20594;-74
2022/09/20 01:24:22;;;;;;;5.50;1.40;;;12.60;99.90;;;;;;8412346;28;20044;-74
2022/09/20 01:28:24;;;;;;;5.25;1.15;;;12.70;99.90;;;;;;8405339;28;20044;-75
2022/09/20 01:38:16;;;;;;;3.78;1.27;;;12.60;99.90;;;;;;8421445;28;20625;-74
2022/09/20 01:42:18;;;;;;;4.03;1.30;;;12.60;99.90;;;;;;8418425;28;20039;-74
2022/09/20 01:46:30;;;;;;;6.90;1.30;;;12.60;99.90;;;;;;8421094;28;20050;-74
2022/09/20 01:51:04;;;;;;;6.85;1.63;;;12.60;99.90;;;;;;8412310;28;20479;-74
2022/09/20 01:55:27;;;;;;;4.88;1.50;;;12.60;99.90;;;;;;8387424;28;20130;-73
2022/09/20 01:59:49;;;;;;;4.53;1.60;;;12.60;99.90;;;;;;8415013;28;20459;-74
2022/09/20 02:04:25;;;;;;;4.18;1.55;;;12.60;99.90;;;;;;8415789;28;20064;-74
2022/09/20 02:08:33;;;;;;;5.70;1.67;;;12.70;99.90;;;;;;8410110;28;20135;-73
2022/09/20 02:12:53;;;;;;;;;;;12.70;99.90;;;;;;8451768;27;20127;-74
2022/09/20 02:17:11;;;;;;;6.40;1.92;;;12.80;99.90;;;;;;8447097;27;20375;-74
2022/09/20 02:21:31;;;;;;;2.72;1.20;;;12.80;99.90;;;;;;8450116;27;20123;-74
2022/09/20 02:26:02;;;;;;;4.03;1.30;;;12.80;99.90;;;;;;8423302;28;20055;-74
2022/09/20 02:30:28;;;;;;;3.72;1.40;;;12.80;99.90;;;;;;8414730;28;20052;-74
2022/09/20 02:34:48;;;;;;;4.47;1.50;;;12.70;99.90;;;;;;8405462;28;20280;-74
2022/09/20 02:38:58;;;;;;;6.03;1.55;;;12.70;99.90;;;;;;8407607;28;20498;-74
2022/09/20 02:43:37;;;;;;;3.83;1.50;;;12.70;99.90;;;;;;8403105;28;20072;-74
2022/09/20 02:47:42;;;;;;;5.25;1.60;;;12.70;99.90;;;;;;8403491;28;20523;-74
2022/09/20 02:52:19;;;;;;;5.00;1.75;;;12.60;99.90;;;;;;8407543;28;20136;-73
2022/09/20 02:56:43;;;;;;;4.97;1.40;;;12.70;99.90;;;;;;8407884;28;20060;-74
2022/09/20 03:01:03;;;;;;;3.10;1.33;;;12.70;99.90;;;;;;8438666;27;20051;-74
2022/09/20 03:05:13;;;;;;;3.42;1.50;;;12.60;99.90;;;;;;8404797;28;20437;-74
2022/09/20 03:09:33;;;;;;;3.65;1.58;;;12.60;99.90;;;;;;8397058;28;20056;-74
2022/09/20 03:13:47;;;;;;;4.15;1.60;;;12.60;99.90;;;;;;8412051;28;20048;-74
2022/09/20 03:18:01;;;;;;;3.10;1.30;;;12.50;99.90;;;;;;8414282;28;20068;-73
2022/09/20 03:22:02;;;;;;;3.17;1.25;;;12.40;99.90;;;;;;8409344;28;20458;-74
2022/09/20 03:26:15;;;;;;;4.20;1.50;;;12.40;99.90;;;;;;8411403;28;20052;-75
2022/09/20 03:30:23;;;;;;;3.15;1.27;;;12.40;99.90;;;;;;8411305;28;20062;-74
2022/09/20 03:34:47;;;;;;;3.08;1.10;;;12.30;99.90;;;;;;8409761;28;20082;-74
2022/09/20 03:39:16;;;;;;;4.07;1.48;;;12.30;99.90;;;;;;8403357;28;20080;-74
2022/09/20 03:43:20;;;;;;;2.80;1.20;;;12.30;99.90;;;;;;8406848;28;20139;-74
2022/09/20 03:47:41;;;;;;;3.53;1.10;;;12.20;99.90;;;;;;8397871;28;20069;-74
2022/09/20 03:51:58;;;;;;;4.55;1.20;;;12.20;99.90;;;;;;8397350;28;20409;-74
2022/09/20 03:56:17;;;;;;;3.40;1.10;;;12.20;99.90;;;;;;8406979;28;20062;-73
2022/09/20 04:00:32;;;;;;;3.05;1.08;;;12.10;99.90;;;;;;8409291;28;20048;-74
2022/09/20 04:04:51;;;;;;;4.05;1.55;;;12.10;99.90;;;;;;8405595;28;20131;-74
2022/09/20 04:08:58;;;;;;;2.67;1.10;;;12.00;99.90;;;;;;8408168;28;20059;-73
2022/09/20 04:13:30;;;;;;;4.82;1.20;;;12.00;99.90;;;;;;8411631;28;20675;-74
2022/09/20 04:17:41;;;;;;;3.80;1.13;;;12.00;99.90;;;;;;8416487;28;20093;-74
2022/09/20 04:21:54;;;;;;;2.63;1.10;;;11.90;99.90;;;;;;8427797;28;20130;-73
2022/09/20 04:25:59;;;;;;;4.72;1.63;;;11.90;99.90;;;;;;8421045;28;20118;-74
2022/09/20 04:30:20;;;;;;;4.25;1.60;;;11.90;99.90;;;;;;8414459;28;20127;-74
2022/09/20 04:36:27;;;;;;;3.92;1.65;;;11.90;99.90;;;;;;8427444;28;20162;-73
2022/09/20 04:39:30;;;;;;;5.88;1.80;;;11.90;99.90;;;;;;8419887;28;20550;-74
2022/09/20 04:43:53;;;;;;;3.60;1.50;;;11.90;99.90;;;;;;8374738;28;20086;-74
2022/09/20 04:48:03;;;;;;;5.18;1.90;;;11.90;99.90;;;;;;8412370;28;20065;-74
2022/09/20 04:52:39;;;;;;;3.50;1.40;;;11.80;99.90;;;;;;8407318;28;20487;-75
2022/09/20 04:57:09;;;;;;;8.18;1.60;;;11.80;99.90;;;;;;8410863;28;20237;-73
2022/09/20 05:01:15;;;;;;;3.50;1.42;;;11.80;99.90;;;;;;8405185;28;20053;-74
2022/09/20 05:05:44;;;;;;;2.97;1.10;;;11.80;99.90;;;;;;8409496;28;20044;-74
2022/09/20 05:10:20;;;;;;;5.38;1.90;;;11.80;99.90;;;;;;8439212;27;20062;-73
2022/09/20 05:14:36;;;;;;;4.28;1.60;;;11.70;99.90;;;;;;8411637;28;20566;-74
2022/09/20 05:18:43;;;;;;;4.70;1.60;;;11.70;99.90;;;;;;8405078;28;20170;-74
2022/09/20 05:23:11;;;;;;;4.53;1.67;;;11.70;99.90;;;;;;8408576;28;20044;-74
2022/09/20 05:27:32;;;;;;;;;;;11.70;99.90;;;;;;8417729;28;20546;-74
2022/09/20 05:31:51;;;;;;;4.35;1.85;;;11.70;99.90;;;;;;8404800;28;19925;-74
2022/09/20 05:36:29;;;;;;;3.75;1.70;;;11.60;99.90;;;;;;8413122;28;20040;-74
2022/09/20 05:41:17;;;;;;;6.78;1.63;;;11.60;99.90;;;;;;8450048;27;20044;-75
2022/09/20 05:45:32;;;;;;;3.42;1.52;;;11.50;99.90;;;;;;8416455;28;20056;-73
2022/09/20 05:49:54;;;;;;;3.20;1.40;;;11.50;99.90;;;;;;8413681;28;20040;-74
2022/09/20 05:53:59;;;;;;;5.82;1.75;;;11.50;99.90;;;;;;8419811;28;20051;-74
2022/09/20 05:58:06;;;;;;;5.72;2.20;;;11.40;99.90;;;;;;8409840;28;20116;-74
2022/09/20 06:02:36;;;;;;;4.35;1.95;;;11.40;99.90;;;;;;8415654;28;20047;-74
2022/09/20 06:06:40;;;;;;;4.47;1.90;;;11.40;99.90;;;;;;8409705;28;20433;-74
2022/09/20 06:10:51;;;;;;;4.97;1.90;;;11.40;99.90;;;;;;8418304;28;20048;-73
2022/09/20 06:15:04;;;;;;;6.20;2.10;;;11.40;99.90;;;;;;8421259;28;20123;-75
2022/09/20 06:19:35;;;;;;;4.90;1.70;;;11.50;99.90;;;;;;8414723;28;20080;-74
2022/09/20 06:23:37;;;;;;;3.58;1.50;;;11.50;99.90;;;;;;8424998;28;20517;-75
2022/09/20 06:27:50;;;;;;;4.93;1.80;;;11.60;99.90;;;;;;8409585;28;20139;-74
2022/09/20 06:31:52;;;;;;;4.82;1.98;;;11.60;99.90;;;;;;8417346;28;20048;-74
2022/09/20 06:41:27;;;;;;;3.90;1.90;;;11.80;99.90;;;;;;8408992;28;20040;-74
2022/09/20 06:45:20;;;;;;;4.22;1.92;;;11.90;99.90;;;;;;8414810;28;20415;-74
2022/09/20 06:49:27;;;;;;;5.38;2.20;;;12.00;99.90;;;;;;8416534;28;20135;-74
2022/09/20 06:53:31;;;;;;;;;;;12.00;99.90;;;;;;8418180;28;20427;-74
2022/09/20 06:57:36;;;;;;;4.60;1.88;;;12.00;99.90;;;;;;8422726;28;19927;-74
2022/09/20 07:01:38;;;;;;;4.07;1.90;;;12.00;99.90;;;;;;8407203;28;20314;-74
2022/09/20 07:05:40;;;;;;;6.90;2.03;;;12.00;99.90;;;;;;8401928;28;20507;-74
2022/09/20 07:09:42;;;;;;;5.38;2.38;;;12.00;99.90;;;;;;8402779;28;20064;-73
2022/09/20 07:13:48;;;;;;;6.47;2.30;;;12.00;99.90;;;;;;8392599;28;20062;-74
2022/09/20 07:23:14;;;;;;;6.55;2.42;;;12.30;99.90;;;;;;8388587;28;20043;-74
2022/09/20 07:27:16;;;;;;;6.10;2.80;;;12.40;99.90;;;;;;8391712;28;20049;-74
2022/09/20 07:31:20;;;;;;;7.35;2.45;;;12.50;99.90;;;;;;8392976;28;20140;-73
2022/09/20 07:35:21;;;;;;;6.28;2.45;;;12.50;99.90;;;;;;8395391;28;20097;-74
2022/09/20 07:39:23;;;;;;;6.50;2.70;;;12.70;99.90;;;;;;8390746;28;20072;-74
2022/09/20 07:43:25;;;;;;;6.30;2.30;;;12.90;99.90;;;;;;8396584;28;20151;-74
2022/09/20 07:47:30;;;;;;;5.95;2.20;;;13.00;99.90;;;;;;8390995;28;20684;-75
2022/09/20 07:51:32;;;;;;;6.50;1.65;;;13.20;99.90;;;;;;8402848;28;20075;-73
2022/09/20 07:55:34;;;;;;;5.90;1.98;;;13.30;99.90;;;;;;8395110;28;20049;-74
2022/09/20 07:59:36;;;;;;;5.65;2.00;;;13.30;99.90;;;;;;8394030;28;20131;-74
2022/09/20 08:03:38;;;;;;;4.80;1.80;;;13.40;99.90;;;;;;8390703;28;20044;-74
2022/09/20 08:07:40;;;;;;;4.30;1.90;;;13.50;99.90;;;;;;8389855;28;20047;-74
2022/09/20 08:11:42;;;;;;;6.03;2.28;;;13.50;99.90;;;;;;8388090;28;20144;-74
2022/09/20 08:15:44;;;;;;;7.47;1.80;;;13.50;99.90;;;;;;8397786;28;20130;-73
2022/09/20 08:19:46;;;;;;;5.20;1.70;;;13.40;99.90;;;;;;8409539;28;20040;-74
2022/09/20 08:23:48;;;;;;;5.05;1.40;;;13.40;99.90;;;;;;8404809;28;20078;-74
2022/09/20 08:27:53;;;;;;;5.18;1.48;;;13.40;99.90;;;;;;8391133;28;20135;-74
2022/09/20 08:31:57;;;;;;;3.33;1.10;;;13.40;99.90;;;;;;8403141;28;20468;-75
2022/09/20 08:35:59;;;;;;;4.60;0.95;;;13.40;99.90;;;;;;8390556;28;20063;-74
2022/09/20 08:40:01;;;;;;;2.45;0.90;;;13.40;99.90;;;;;;8393776;28;20046;-73
2022/09/20 08:44:26;;;;;;;3.58;1.00;;;13.40;99.90;;;;;;8398700;28;20079;-74
2022/09/20 08:48:32;;;;;;;3.55;1.20;;;13.40;99.90;;;;;;8421516;27;20230;-74
2022/09/20 08:52:36;;;;;;;6.35;1.10;;;13.60;99.90;;;;;;8388438;28;20055;-74
2022/09/20 08:56:38;;;;;;;4.95;1.30;;;13.70;99.90;;;;;;8400029;28;20127;-73
2022/09/20 09:00:42;;;;;;;;;;;13.90;99.90;;;;;;8404131;28;20050;-74
2022/09/20 09:04:44;;;;;;;;;;;13.90;99.90;;;;;;8402548;28;19926;-73
2022/09/20 09:08:49;;;;;;;;;;;14.00;99.90;;;;;;8409249;28;19920;-74
2022/09/20 09:12:51;;;;;;;;;;;14.00;99.90;;;;;;8398562;28;20407;-74
2022/09/20 09:16:53;;;;;;;;;;;14.00;99.90;;;;;;8401794;28;20443;-74
2022/09/20 09:20:57;;;;;;;;;;;14.00;99.90;;;;;;8405066;28;20236;-74
2022/09/20 09:40:15;;;;;;;;;;;14.20;99.90;;;;;;8393857;28;19923;-74
2022/09/20 09:44:28;;;;;;;;;;;14.30;99.90;;;;;;8433722;27;19964;-74
2022/09/20 09:48:30;;;;;;;;;;;14.30;99.90;;;;;;8401232;28;19928;-74
2022/09/20 09:52:32;;;;;;;;;;;14.30;99.90;;;;;;8399384;28;19924;-74
2022/09/20 09:56:42;;;;;;;;;;;14.30;99.90;;;;;;8400833;28;20387;-74
2022/09/20 10:06:25;;;;;;;;;;;14.40;99.90;;;;;;8392473;28;20395;-74
2022/09/20 10:10:34;;;;;;;;;;;14.40;99.90;;;;;;8402414;28;19930;-74
2022/09/20 10:14:55;;;;;;;;;;;14.40;99.90;;;;;;8406176;28;19960;-73
2022/09/20 10:19:11;;;;;;;;;;;14.30;99.90;;;;;;8407895;28;20389;-73
2022/09/20 10:23:20;;;;;;;;;;;14.30;99.90;;;;;;8391904;28;19924;-73
2022/09/20 10:27:42;;;;;;;;;;;14.20;99.90;;;;;;8404491;28;20322;-75
2022/09/20 10:31:53;;;;;;;;;;;14.20;99.90;;;;;;8408286;28;19921;-74
2022/09/20 10:36:07;;;;;;;;;;;14.10;99.90;;;;;;8430352;27;19946;-74
2022/09/20 10:40:21;;;;;;;;;;;14.20;99.90;;;;;;8393951;28;19924;-74
2022/09/20 10:44:32;;;;;;;;;;;14.20;99.90;;;;;;8399474;28;20358;-74
2022/09/20 10:48:36;;;;;;;;;;;14.30;99.90;;;;;;8412248;28;19920;-74
2022/09/20 10:52:38;;;;;;;;;;;14.40;99.90;;;;;;8407118;28;20379;-74
2022/09/20 10:56:49;;;;;;;;;;;14.50;99.90;;;;;;8402762;28;19924;-74
2022/09/20 11:01:01;;;;;;;;;;;14.60;99.90;;;;;;8395322;28;19924;-74
2022/09/20 11:05:03;;;;;;;;;;;14.70;99.90;;;;;;8389895;28;19924;-74
2022/09/20 11:09:07;;;;;;;;;;;14.80;99.90;;;;;;8393457;28;19923;-73
2022/09/20 11:13:19;;;;;;;;;;;15.00;99.90;;;;;;8425881;27;20393;-74
2022/09/20 11:17:26;;;;;;;;;;;15.20;99.90;;;;;;8396729;28;20030;-74
2022/09/20 11:21:33;;;;;;;;;;;15.30;99.90;;;;;;8392508;28;20007;-74
2022/09/20 11:25:37;;;;;;;;;;;15.40;99.90;;;;;;8392349;28;20014;-74
2022/09/20 11:29:42;;;;;;;;;;;15.50;99.90;;;;;;8392694;28;19968;-74
2022/09/20 11:33:51;;;;;;;;;;;15.60;99.90;;;;;;8392425;28;19950;-74
2022/09/20 11:37:57;;;;;;;;;;;15.60;99.90;;;;;;8389225;28;20394;-74
2022/09/20 11:42:00;;;;;;;;;;;15.70;99.90;;;;;;8393788;28;20427;-74
2022/09/20 11:46:03;;;;;;;;;;;15.70;99.90;;;;;;8391825;28;20314;-74
2022/09/20 11:50:25;;;;;;;;;;;15.80;99.90;;;;;;8399564;28;20053;-73
2022/09/20 11:54:30;;;;;;;;;;;15.80;99.90;;;;;;8404940;28;19926;-79
2022/09/20 11:58:42;;;;;;;;;;;15.80;99.90;;;;;;8408644;28;19968;-79
2022/09/20 12:02:48;;;;;;;;;;;15.80;99.90;;;;;;8406649;28;19924;-79
2022/09/20 12:06:57;;;;;;;;;;;15.90;99.90;;;;;;8400416;28;19961;-79
2022/09/20 12:11:03;;;;;;;;;;;16.00;99.90;;;;;;8395937;28;20062;-78
2022/09/20 12:15:06;;;;;;;;;;;15.90;99.90;;;;;;8394260;28;20320;-79
2022/09/20 12:19:12;;;;;;;;;;;15.90;99.90;;;;;;8396251;28;19920;-80
2022/09/20 12:23:33;;;;;;;;;;;15.90;99.90;;;;;;8398085;28;20457;-79
2022/09/20 12:27:34;;;;;;;;;;;16.00;99.90;;;;;;8395090;28;19968;-79
2022/09/20 12:31:37;;;;;;;;;;;16.00;99.90;;;;;;8396100;28;20402;-79
2022/09/20 12:35:38;;;;;;;;;;;16.10;99.90;;;;;;8397799;28;19924;-79
2022/09/20 12:39:49;;;;;;;;;;;16.20;99.90;;;;;;8393886;28;20461;-79
2022/09/20 12:43:59;;;;;;;;;;;16.30;99.90;;;;;;8395880;28;19930;-79
2022/09/20 12:48:00;;;;;;;;;;;16.40;99.90;;;;;;8399280;28;19979;-79
2022/09/20 12:56:26;;;;;;;;;;;16.60;99.90;;;;;;8400321;28;19940;-79
2022/09/20 13:00:29;;;;;;;;;;;16.60;99.90;;;;;;8402754;28;19962;-79
2022/09/20 13:04:51;;;;;;;;;;;16.50;99.90;;;;;;8396111;28;19986;-79
2022/09/20 13:08:53;;;;;;;;;;;16.40;99.90;;;;;;8401305;28;20012;-79
2022/09/20 13:12:57;;;;;;;;;;;16.40;99.90;;;;;;8404964;28;19940;-79
2022/09/20 13:17:05;;;;;;;;;;;16.30;99.90;;;;;;8429563;27;19924;-79
2022/09/20 13:21:07;;;;;;;;;;;16.30;99.90;;;;;;8405726;28;20015;-79
2022/09/20 13:25:16;;;;;;;;;;;16.20;99.90;;;;;;8403587;28;19924;-79
2022/09/20 13:29:41;;;;;;;;;;;16.10;99.90;;;;;;8397118;28;20027;-80
2022/09/20 13:33:42;;;;;;;;;;;16.00;99.90;;;;;;8395602;28;19926;-80
2022/09/20 13:37:55;;;;;;;;;;;15.90;99.90;;;;;;8403411;28;19927;-79
2022/09/20 13:42:01;;;;;;;;;;;15.80;99.90;;;;;;8437984;27;20261;-79
2022/09/20 13:46:07;;;;;;;;;;;15.80;99.90;;;;;;8404623;28;19920;-79
2022/09/20 13:50:17;;;;;;;;;;;15.80;99.90;;;;;;8408696;28;19920;-79
2022/09/20 13:54:23;;;;;;;;;;;15.90;99.90;;;;;;8408127;28;20015;-79
2022/09/20 13:58:27;;;;;;;;;;;16.00;99.90;;;;;;8396956;28;20340;-79
2022/09/20 14:02:30;;;;;;;;;;;16.20;99.90;;;;;;8407634;28;20023;-79
2022/09/20 14:06:32;;;;;;;;;;;16.40;99.90;;;;;;8440923;27;19926;-78
2022/09/20 14:10:35;;;;;;;;;;;16.50;99.90;;;;;;8408347;28;19920;-78
2022/09/20 14:14:37;;;;;;;;;;;16.60;99.90;;;;;;8410046;28;20213;-79
2022/09/20 14:18:39;;;;;;;;;;;16.50;99.90;;;;;;8397867;28;20390;-79
2022/09/20 14:22:42;;;;;;;;;;;16.50;99.90;;;;;;8403748;28;20086;-79
2022/09/20 14:26:58;;;;;;;;;;;16.50;99.90;;;;;;8401486;28;20014;-79
2022/09/20 14:31:10;;;;;;;;;;;16.50;99.90;;;;;;8435555;27;19955;-79
2022/09/20 14:35:17;;;;;;;;;;;16.50;99.90;;;;;;8433063;27;20328;-79
2022/09/20 14:39:19;;;;;;;;;;;16.50;99.90;;;;;;8395881;28;20414;-79
2022/09/20 14:43:31;;;;;;;;;;;16.60;99.90;;;;;;8399079;28;19978;-79
2022/09/20 14:47:37;;;;;;;;;;;16.70;99.90;;;;;;8397163;28;19999;-79
2022/09/20 14:51:39;;;;;;;;;;;16.70;99.90;;;;;;8399061;28;20019;-79
2022/09/20 14:55:54;;;;;;;;;;;16.70;99.90;;;;;;8398720;28;20368;-79
2022/09/20 14:59:56;;;;;;;;;;;16.70;99.90;;;;;;8397176;28;20028;-79
2022/09/20 15:04:04;;;;;;;;;;;16.70;99.90;;;;;;8402121;28;20391;-79
2022/09/20 15:08:09;;;;;;;;;;;16.80;99.90;;;;;;8396133;28;19924;-79
2022/09/20 15:12:14;;;;;;;;;;;16.80;99.90;;;;;;8399275;28;19946;-79
2022/09/20 15:16:17;;;;;;;;;;;16.70;99.90;;;;;;8431979;27;19927;-79
2022/09/20 15:20:20;;;;;;;;;;;16.70;99.90;;;;;;8402596;28;19928;-79
2022/09/20 15:24:25;;;;;;;;;;;16.70;99.90;;;;;;8423176;27;19967;-79
2022/09/20 15:28:26;;;;;;;;;;;16.70;99.90;;;;;;8393220;28;20030;-79
2022/09/20 15:32:28;;;;;;;;;;;16.60;99.90;;;;;;8400119;28;19920;-79
2022/09/20 15:36:30;;;;;;;;;;;16.60;99.90;;;;;;8392037;28;20363;-79
2022/09/20 15:40:33;;;;;;;;;;;16.60;99.90;;;;;;8395107;28;19924;-78
2022/09/20 15:44:35;;;;;;;;;;;16.50;99.90;;;;;;8390902;28;19932;-79
2022/09/20 15:48:36;;;;;;;;;;;16.50;99.90;;;;;;8391399;28;19927;-79
2022/09/20 15:52:41;;;;;;;;;;;16.50;99.90;;;;;;8406410;28;20286;-79
2022/09/20 15:56:42;;;;;;;;;;;16.50;99.90;;;;;;8431104;27;20379;-79
2022/09/20 16:00:44;;;;;;;;;;;16.50;99.90;;;;;;8396871;28;20127;-79
2022/09/20 16:04:46;;;;;;;;;;;16.60;99.90;;;;;;8395228;28;19920;-79
2022/09/20 16:08:48;;;;;;;;;;;16.50;99.90;;;;;;8390934;28;20269;-79
2022/09/20 16:12:50;;;;;;;;;;;16.50;99.90;;;;;;8391535;28;20466;-79
2022/09/20 16:16:51;;;;;;;;;;;16.50;99.90;;;;;;8395924;28;20007;-79
2022/09/20 16:20:53;;;;;;;;;;;16.60;99.90;;;;;;8393431;28;19931;-79
2022/09/20 16:24:55;;;;;;;;;;;16.50;99.90;;;;;;8393314;28;19920;-79
2022/09/20 16:28:56;;;;;;;;;;;16.50;99.90;;;;;;8422320;27;19960;-79
2022/09/20 16:33:04;;;;;;;;;;;16.50;99.90;;;;;;8393402;28;19970;-79
2022/09/20 16:37:10;;;;;;;;;;;16.50;99.90;;;;;;8382990;28;20035;-79
2022/09/20 16:41:12;;;;;;;;;;;16.50;99.90;;;;;;8386457;28;19928;-80
2022/09/20 16:45:14;;;;;;;;;;;16.50;99.90;;;;;;8396147;28;20370;-79
2022/09/20 16:49:16;;;;;;;;;;;16.50;99.90;;;;;;8390758;28;20019;-79
2022/09/20 16:53:18;;;;;;;;;;;16.50;99.90;;;;;;8391972;28;20356;-79
2022/09/20 16:57:21;;;;;;;;;;;16.50;99.90;;;;;;8396355;28;20156;-79
2022/09/20 17:01:22;;;;;;;;;;;16.50;99.90;;;;;;8397492;28;20346;-79
2022/09/20 17:05:24;;;;;;;;;;;16.50;99.90;;;;;;8392445;28;19931;-79
2022/09/20 17:09:27;;;;;;;;;;;16.40;99.90;;;;;;8392033;28;19920;-79
2022/09/20 17:13:34;;;;;;;;;;;16.40;99.90;;;;;;8394392;28;19924;-79
2022/09/20 17:17:36;;;;;;;;;;;16.30;99.90;;;;;;8390107;28;19966;-79
2022/09/20 17:21:38;;;;;;;;;;;16.20;99.90;;;;;;8396229;28;20039;-79
2022/09/20 17:25:42;;;;;;;;;;;16.10;99.90;;;;;;8408488;28;20019;-79
2022/09/20 17:29:44;;;;;;;;;;;16.00;99.90;;;;;;8391318;28;19967;-79
2022/09/20 17:33:46;;;;;;;;;;;15.90;99.90;;;;;;8395943;28;19926;-79
2022/09/20 17:37:47;;;;;;;;;;;15.80;99.90;;;;;;8407239;28;20039;-79
2022/09/20 17:41:49;;;;;;;;;;;15.70;99.90;;;;;;8385055;28;19928;-79
2022/09/20 17:45:51;;;;;;;;;;;15.60;99.90;;;;;;8387037;28;20370;-79
2022/09/20 17:49:53;;;;;;;;;;;15.40;99.90;;;;;;8398080;28;20015;-78
2022/09/20 17:53:55;;;;;;;;;;;15.30;99.90;;;;;;8392807;28;19928;-79
2022/09/20 17:57:56;;;;;;;;;;;15.10;99.90;;;;;;8403417;28;19934;-79
2022/09/20 18:01:58;;;;;;;;;;;14.90;99.90;;;;;;8402015;28;19974;-79
2022/09/20 18:06:08;;;;;;;;;;;14.80;99.90;;;;;;8389767;28;20318;-79
2022/09/20 18:10:14;;;;;;;;;;;14.80;99.90;;;;;;8432191;27;20011;-79
2022/09/20 18:14:16;;;;;;;;;;;14.60;99.90;;;;;;8401438;28;20256;-79
2022/09/20 18:18:18;;;;;;;;;;;14.60;99.90;;;;;;8410352;28;20024;-79
2022/09/20 18:22:20;;;;;;;;;;;14.50;99.90;;;;;;8413306;28;20044;-79
2022/09/20 18:26:23;;;;;;;;;;;14.40;99.90;;;;;;8402502;28;24621;-79
2022/09/20 18:30:24;;;;;;;;;;;14.30;99.90;;;;;;8407904;28;20006;-79
2022/09/20 18:34:30;;;;;;;;;;;14.30;99.90;;;;;;8404508;28;19971;-79
2022/09/20 18:38:32;;;;;;;;;;;14.20;99.90;;;;;;8405590;28;19955;-79
2022/09/20 18:42:33;;;;;;;;;;;14.10;99.90;;;;;;8395815;28;19931;-79
2022/09/20 18:46:39;;;;;;;;;;;14.10;99.90;;;;;;8401246;28;20782;-78
2022/09/20 18:50:41;;;;;;;;;;;14.00;99.90;;;;;;8396973;28;19932;-79
2022/09/20 18:54:42;;;;;;;;;;;14.00;99.90;;;;;;8397010;28;19932;-79
2022/09/20 18:58:44;;;;;;;;;;;13.90;99.90;;;;;;8399805;28;20015;-78
2022/09/20 19:02:54;;;;;;;;;;;13.90;99.90;;;;;;8397465;28;19924;-79
2022/09/20 19:07:14;;;;;;;;;;;13.80;99.90;;;;;;8400906;28;19942;-79
2022/09/20 19:11:25;;;;;;;;;;;13.80;99.90;;;;;;8398773;28;19955;-79
2022/09/20 19:15:39;;;;;;;;;;;13.70;99.90;;;;;;8427783;27;19964;-79
2022/09/20 19:19:48;;;;;;;;;;;13.70;99.90;;;;;;8399171;28;19920;-79
2022/09/20 19:24:11;;;;;;;;;;;13.60;99.90;;;;;;8399071;28;19924;-79
2022/09/20 19:28:13;;;;;;;;;;;13.60;99.90;;;;;;8399880;28;20281;-78
2022/09/20 19:32:17;;;;;;;;;;;13.50;99.90;;;;;;8393548;28;19963;-79
2022/09/20 19:36:22;;;;;;;;;;;13.60;99.90;;;;;;8394082;28;20355;-79
2022/09/20 19:40:38;;;;;;;;;;;13.50;99.90;;;;;;8431455;27;19924;-79
2022/09/20 19:44:42;;;;;;;;;;;13.50;99.90;;;;;;8398332;28;19925;-79
2022/09/20 19:49:07;;;;;;;;;;;13.50;99.90;;;;;;8395530;28;19927;-79
2022/09/20 19:53:10;;;;;;;;;;;13.50;99.90;;;;;;8382334;28;19919;-79
2022/09/20 19:57:19;;;;;;;;;;;13.40;99.90;;;;;;8402992;28;20280;-79
2022/09/20 20:01:22;;;;;;;;;;;13.40;99.90;;;;;;8428618;27;20389;-79
2022/09/20 20:05:24;;;;;;;;;;;13.40;99.90;;;;;;8402361;28;19994;-79
2022/09/20 20:09:46;;;;;;;;;;;13.40;99.90;;;;;;8395784;28;20363;-79
2022/09/20 20:14:08;;;;;;;;;;;13.40;99.90;;;;;;8394762;28;19926;-79
2022/09/20 20:18:26;;;;;;;;;;;13.40;99.90;;;;;;8393822;28;19926;-79
2022/09/20 20:22:39;;;;;;;;;;;13.40;99.90;;;;;;8403757;28;20025;-79
2022/09/20 20:26:42;;;;;;;;;;;13.40;99.90;;;;;;8396226;28;19944;-79
2022/09/20 20:30:44;;;;;;;;;;;13.40;99.90;;;;;;8397761;28;19938;-79
2022/09/20 20:34:45;;;;;;;;;;;13.40;99.90;;;;;;8393272;28;19928;-79
2022/09/20 20:38:51;;;;;;;;;;;13.40;99.90;;;;;;8401586;28;20458;-78
2022/09/20 20:43:00;;;;;;;;;;;13.30;99.90;;;;;;8404977;28;20062;-79
2022/09/20 20:47:05;;;;;;;;;;;13.30;99.90;;;;;;8391081;28;19932;-79
2022/09/20 20:51:11;;;;;;;;;;;13.30;99.90;;;;;;8396253;28;19931;-79
2022/09/20 20:55:13;;;;;;;;;;;13.30;99.90;;;;;;8393808;28;19938;-79
2022/09/20 20:59:16;;;;;;;;;;;13.30;99.90;;;;;;8391523;28;20310;-79
2022/09/20 21:03:17;;;;;;;;;;;13.30;99.90;;;;;;8411934;28;20008;-79
2022/09/20 21:07:19;;;;;;;;;;;13.20;99.90;;;;;;8417212;28;19920;-79
2022/09/20 21:11:22;;;;;;;;;;;13.20;99.90;;;;;;8415535;28;19923;-78
2022/09/20 21:15:23;;;;;;;;;;;13.20;99.90;;;;;;8408611;28;19920;-79
2022/09/20 21:19:25;;;;;;;;;;;13.20;99.90;;;;;;8414192;28;19936;-79
2022/09/20 21:23:27;;;;;;;;;;;13.20;99.90;;;;;;8414063;28;20014;-79
2022/09/20 21:27:29;;;;;;;;;;;13.20;99.90;;;;;;8416879;28;19928;-78
2022/09/20 21:31:32;;;;;;;;;;;13.20;99.90;;;;;;8416235;28;19921;-78
2022/09/20 21:35:33;;;;;;;;;;;13.10;99.90;;;;;;8449478;27;19954;-79
2022/09/20 21:39:35;;;;;;;;;;;13.10;99.90;;;;;;8419249;28;19951;-79
2022/09/20 21:43:41;;;;;;;;;;;13.10;99.90;;;;;;8416702;28;20012;-79
2022/09/20 21:47:47;;;;;;;;;;;13.10;99.90;;;;;;8421226;28;19949;-79
2022/09/20 21:51:52;;;;;;;;;;;13.10;99.90;;;;;;8421162;28;20054;-79
2022/09/20 21:56:00;;;;;;;;;;;13.10;99.90;;;;;;8422200;28;20471;-79
2022/09/20 22:00:02;;;;;;;;;;;13.10;99.90;;;;;;8418701;28;20383;-79
2022/09/20 22:04:10;;;;;;;;;;;13.10;99.90;;;;;;8423674;28;19951;-79
2022/09/20 22:08:12;;;;;;;;;;;13.00;99.90;;;;;;8426828;28;19925;-79
2022/09/20 22:12:14;;;;;;;;;;;13.00;99.90;;;;;;8411409;28;19928;-78
2022/09/20 22:16:17;;;;;;;;;;;13.00;99.90;;;;;;8414131;28;20049;-79
2022/09/20 22:20:19;;;;;;;;;;;13.00;99.90;;;;;;8452598;27;19920;-79
2022/09/20 22:24:21;;;;;;;;;;;13.00;99.90;;;;;;8412673;28;19967;-78
2022/09/20 22:28:22;;;;;;;;;;;13.00;99.90;;;;;;8421338;28;19924;-79
2022/09/20 22:32:24;;;;;;;;;;;12.90;99.90;;;;;;8420101;28;19920;-79
2022/09/20 22:36:27;;;;;;;;;;;12.90;99.90;;;;;;8410811;28;19934;-79
2022/09/20 22:40:29;;;;;;;;;;;12.90;99.90;;;;;;8411162;28;20389;-79
2022/09/20 22:44:30;;;;;;;;;;;12.90;99.90;;;;;;8405338;28;19944;-79
2022/09/20 22:48:32;;;;;;;;;;;12.80;99.90;;;;;;8413465;28;19931;-79
2022/09/20 22:52:34;;;;;;;;;;;12.80;99.90;;;;;;8422699;28;19969;-79
2022/09/20 22:56:36;;;;;;;;;;;12.70;99.90;;;;;;8424170;28;19930;-79
2022/09/20 23:00:38;;;;;;;;;;;12.60;99.90;;;;;;8463815;27;20331;-79
2022/09/20 23:04:39;;;;;;;;;;;12.60;99.90;;;;;;8417473;28;20004;-79
2022/09/20 23:08:41;;;;;;;;;;;12.50;99.90;;;;;;8416344;28;20382;-79
2022/09/20 23:12:43;;;;;;;;;;;12.50;99.90;;;;;;8386806;28;19931;-79
2022/09/20 23:16:45;;;;;;;;;;;12.50;99.90;;;;;;8394983;28;20331;-79
2022/09/20 23:20:46;;;;;;;6.03;2.40;;;12.40;99.90;;;;;;8398195;28;19924;-79
2022/09/20 23:24:48;;;;;;;6.30;2.50;;;12.30;99.90;;;;;;8387451;28;20044;-79
2022/09/20 23:28:55;;;;;;;6.13;2.40;;;12.30;99.90;;;;;;8391182;28;20059;-79
2022/09/20 23:32:57;;;;;;;6.07;2.10;;;12.20;99.90;;;;;;8379330;28;20064;-79
2022/09/20 23:36:59;;;;;;;4.38;2.20;;;12.20;99.90;;;;;;8381653;28;20044;-79
2022/09/20 23:41:09;;;;;;;5.63;2.30;;;12.20;99.90;;;;;;8381432;28;20098;-79